Time;durP1;ratioP1;P1;durP2;ratioP2;P2;SDS_P1;SDS_P2;PMS_P1;PMS_P2;Temp;Humidity;BMP_temperature;BMP_pressure;BME280_temperature;BME280_humidity;BME280_pressure;Samples;Min_cycle;Max_cycle;Signal;HPM_P1;HPM_P2
2023/06/16 00:01:53;;;;;;;0.80;0.20;;;;;;;;;;5089544;28;20400;-79
2023/06/16 00:04:25;;;;;;;0.20;0.05;;;;;;;;;;5089802;28;20627;-77
2023/06/16 00:06:58;;;;;;;0.45;0.20;;;;;;;;;;5107258;28;20058;-75
2023/06/16 00:09:29;;;;;;;0.85;0.20;;;;;;;;;;5107013;28;20044;-79
2023/06/16 00:11:59;;;;;;;0.80;0.22;;;;;;;;;;5108281;28;20525;-76
2023/06/16 00:14:30;;;;;;;0.68;0.17;;;;;;;;;;5107718;28;20047;-76
2023/06/16 00:17:00;;;;;;;1.70;0.40;;;;;;;;;;5107702;28;20048;-77
2023/06/16 00:19:31;;;;;;;0.90;0.30;;;;;;;;;;5107406;28;20055;-76
2023/06/16 00:22:03;;;;;;;1.73;0.22;;;;;;;;;;5107703;28;20047;-77
2023/06/16 00:24:35;;;;;;;1.77;0.40;;;;;;;;;;5071628;28;20047;-75
2023/06/16 00:27:06;;;;;;;2.97;0.35;;;;;;;;;;5107006;28;20039;-76
2023/06/16 00:29:38;;;;;;;3.30;0.32;;;;;;;;;;5107719;28;20043;-77
2023/06/16 00:32:08;;;;;;;4.47;0.43;;;;;;;;;;5107267;28;20048;-77
2023/06/16 00:34:40;;;;;;;0.35;0.22;;;;;;;;;;5106446;28;20067;-77
2023/06/16 00:37:10;;;;;;;0.63;0.20;;;;;;;;;;5087243;28;20052;-77
2023/06/16 00:39:40;;;;;;;2.10;0.32;;;;;;;;;;5105507;28;20047;-77
2023/06/16 00:42:12;;;;;;;0.90;0.30;;;;;;;;;;5088131;28;20059;-77
2023/06/16 00:44:44;;;;;;;0.40;0.32;;;;;;;;;;5106136;28;20043;-76
2023/06/16 00:47:15;;;;;;;1.50;0.30;;;;;;;;;;5106282;28;20048;-78
2023/06/16 00:49:45;;;;;;;1.52;0.32;;;;;;;;;;5105304;28;20047;-75
2023/06/16 00:52:16;;;;;;;3.70;0.50;;;;;;;;;;5104444;28;20055;-75
2023/06/16 00:54:48;;;;;;;1.85;0.30;;;;;;;;;;5087002;28;20052;-77
2023/06/16 00:57:19;;;;;;;0.57;0.35;;;;;;;;;;5104945;28;20051;-77
2023/06/16 00:59:50;;;;;;;1.35;0.30;;;;;;;;;;5086605;28;20498;-76
2023/06/16 01:02:19;;;;;;;1.75;0.40;;;;;;;;;;5086524;28;20501;-76
2023/06/16 01:04:51;;;;;;;1.67;0.40;;;;;;;;;;5105334;28;20055;-76
2023/06/16 01:07:42;;;;;;;1.42;0.20;;;;;;;;;;5087296;28;20047;-76
2023/06/16 01:10:23;;;;;;;0.50;0.30;;;;;;;;;;5069411;28;20052;-77
2023/06/16 01:13:06;;;;;;;1.15;0.25;;;;;;;;;;5086494;28;20044;-77
2023/06/16 01:15:40;;;;;;;0.95;0.43;;;;;;;;;;5104821;28;20520;-77
2023/06/16 01:18:14;;;;;;;1.40;0.30;;;;;;;;;;5104356;28;20062;-76
2023/06/16 01:20:57;;;;;;;2.60;0.90;;;;;;;;;;5103449;28;20035;-77
2023/06/16 01:23:50;;;;;;;1.02;0.40;;;;;;;;;;5085375;28;20055;-76
2023/06/16 01:26:27;;;;;;;1.77;0.38;;;;;;;;;;5083547;28;20506;-76
2023/06/16 01:29:06;;;;;;;2.80;0.50;;;;;;;;;;5104297;28;20051;-77
2023/06/16 01:31:39;;;;;;;1.63;0.63;;;;;;;;;;5087169;28;20055;-78
2023/06/16 01:34:11;;;;;;;0.50;0.30;;;;;;;;;;5108886;28;20046;-77
2023/06/16 01:36:44;;;;;;;6.22;0.15;;;;;;;;;;5112540;28;20050;-78
2023/06/16 01:39:16;;;;;;;0.17;0.03;;;;;;;;;;5095531;28;20039;-76
2023/06/16 01:41:56;;;;;;;1.55;0.20;;;;;;;;;;5091971;28;20051;-76
2023/06/16 01:44:30;;;;;;;1.05;0.30;;;;;;;;;;5094999;28;20050;-76
2023/06/16 01:47:01;;;;;;;0.03;0.03;;;;;;;;;;5110012;28;20043;-76
2023/06/16 01:49:32;;;;;;;0.63;0.25;;;;;;;;;;5086849;28;20051;-77
2023/06/16 01:52:05;;;;;;;0.85;0.10;;;;;;;;;;5105806;28;20043;-76
2023/06/16 01:54:36;;;;;;;0.65;0.10;;;;;;;;;;5105711;28;20046;-77
2023/06/16 01:57:08;;;;;;;1.73;0.22;;;;;;;;;;5105324;28;20051;-77
2023/06/16 01:59:39;;;;;;;0.22;0.20;;;;;;;;;;5086832;28;20065;-76
2023/06/16 02:02:17;;;;;;;0.45;0.10;;;;;;;;;;5104908;28;20043;-76
2023/06/16 02:04:51;;;;;;;1.50;0.20;;;;;;;;;;5105685;28;20047;-76
2023/06/16 02:07:32;;;;;;;0.60;0.20;;;;;;;;;;5105519;28;20050;-77
2023/06/16 02:10:04;;;;;;;0.68;0.20;;;;;;;;;;5105682;28;20047;-77
2023/06/16 02:12:36;;;;;;;0.40;0.10;;;;;;;;;;5104230;28;20059;-77
2023/06/16 02:15:08;;;;;;;0.47;0.30;;;;;;;;;;5104839;28;20418;-77
2023/06/16 02:17:45;;;;;;;0.10;0.10;;;;;;;;;;5086661;28;20059;-76
2023/06/16 02:20:17;;;;;;;;;;;;;;;;;;5105709;28;20047;-77
2023/06/16 02:22:48;;;;;;;4.50;0.30;;;;;;;;;;5105497;28;19923;-77
2023/06/16 02:25:18;;;;;;;1.00;0.10;;;;;;;;;;5105103;28;20048;-76
2023/06/16 02:27:50;;;;;;;0.20;0.20;;;;;;;;;;5105333;28;20048;-78
2023/06/16 02:30:21;;;;;;;3.25;1.10;;;;;;;;;;5086722;28;20076;-76
2023/06/16 02:32:53;;;;;;;1.48;0.57;;;;;;;;;;5105217;28;20051;-77
2023/06/16 02:35:31;;;;;;;1.50;0.70;;;;;;;;;;5105275;28;20494;-80
2023/06/16 02:38:02;;;;;;;1.10;0.60;;;;;;;;;;5072971;28;20058;-80
2023/06/16 02:40:33;;;;;;;1.27;0.55;;;;;;;;;;5091108;28;20051;-78
2023/06/16 02:43:04;;;;;;;0.20;0.20;;;;;;;;;;5090545;28;20062;-77
2023/06/16 02:45:34;;;;;;;1.38;0.38;;;;;;;;;;5108965;28;20048;-76
2023/06/16 02:48:05;;;;;;;0.30;0.20;;;;;;;;;;5090074;28;20066;-76
2023/06/16 02:50:36;;;;;;;0.15;0.10;;;;;;;;;;5089694;28;20138;-77
2023/06/16 02:53:10;;;;;;;0.40;0.13;;;;;;;;;;5090688;28;20600;-80
2023/06/16 02:55:44;;;;;;;0.73;0.30;;;;;;;;;;5090143;28;20056;-81
2023/06/16 02:58:15;;;;;;;5.40;0.20;;;;;;;;;;5090378;28;20055;-77
2023/06/16 03:00:46;;;;;;;0.40;0.20;;;;;;;;;;5089592;28;20070;-79
2023/06/16 03:03:21;;;;;;;12.25;0.40;;;;;;;;;;5090180;28;20051;-77
2023/06/16 03:06:04;;;;;;;1.27;0.20;;;;;;;;;;5089751;28;20062;-78
2023/06/16 03:08:35;;;;;;;0.85;0.30;;;;;;;;;;5089699;28;20059;-78
2023/06/16 03:11:06;;;;;;;0.95;0.40;;;;;;;;;;5089059;28;20063;-78
2023/06/16 03:13:47;;;;;;;1.08;0.30;;;;;;;;;;5089379;28;20062;-78
2023/06/16 03:16:21;;;;;;;6.55;0.38;;;;;;;;;;5089168;28;20540;-77
2023/06/16 03:18:51;;;;;;;0.40;0.30;;;;;;;;;;5088488;28;20062;-77
2023/06/16 03:21:25;;;;;;;1.38;0.30;;;;;;;;;;5108170;28;20043;-77
2023/06/16 03:23:56;;;;;;;1.38;0.30;;;;;;;;;;5089608;28;20059;-77
2023/06/16 03:26:28;;;;;;;0.00;0.00;;;;;;;;;;5108861;28;20048;-80
2023/06/16 03:29:09;;;;;;;0.40;0.20;;;;;;;;;;5089689;28;20525;-77
2023/06/16 03:31:41;;;;;;;0.38;0.22;;;;;;;;;;5090016;28;20506;-78
2023/06/16 03:34:15;;;;;;;1.02;0.30;;;;;;;;;;5089180;28;20062;-78
2023/06/16 03:36:59;;;;;;;0.65;0.38;;;;;;;;;;5088947;28;20051;-77
2023/06/16 03:39:37;;;;;;;2.15;0.40;;;;;;;;;;5073874;28;20075;-78
2023/06/16 03:42:08;;;;;;;3.42;0.20;;;;;;;;;;5089588;28;20059;-79
2023/06/16 03:44:42;;;;;;;0.28;0.28;;;;;;;;;;5089063;28;20051;-77
2023/06/16 03:47:13;;;;;;;0.20;0.13;;;;;;;;;;5089578;28;20519;-77
2023/06/16 03:49:44;;;;;;;1.55;0.20;;;;;;;;;;5106977;28;20054;-79
2023/06/16 03:52:16;;;;;;;0.03;0.03;;;;;;;;;;5089225;28;20070;-78
2023/06/16 03:54:48;;;;;;;0.35;0.10;;;;;;;;;;5089168;28;20043;-80
2023/06/16 03:57:19;;;;;;;0.10;0.00;;;;;;;;;;5107589;28;20059;-77
2023/06/16 03:59:50;;;;;;;0.32;0.10;;;;;;;;;;5089041;28;20418;-77
2023/06/16 04:02:21;;;;;;;0.00;0.00;;;;;;;;;;5089674;28;20044;-78
2023/06/16 04:04:55;;;;;;;0.03;0.03;;;;;;;;;;5089064;28;20051;-79
2023/06/16 04:07:27;;;;;;;1.35;0.03;;;;;;;;;;5088055;28;20403;-77
2023/06/16 04:09:57;;;;;;;0.10;0.10;;;;;;;;;;5088161;28;20043;-77
2023/06/16 04:12:28;;;;;;;0.45;0.00;;;;;;;;;;5088275;28;20043;-77
2023/06/16 04:15:04;;;;;;;0.68;0.10;;;;;;;;;;5088506;28;20056;-76
2023/06/16 04:17:34;;;;;;;0.00;0.00;;;;;;;;;;5107617;28;20055;-77
2023/06/16 04:20:11;;;;;;;0.00;0.00;;;;;;;;;;5088603;28;20048;-76
2023/06/16 04:22:43;;;;;;;0.10;0.00;;;;;;;;;;5088666;28;20043;-77
2023/06/16 04:25:14;;;;;;;0.30;0.08;;;;;;;;;;5088432;28;20048;-77
2023/06/16 04:27:49;;;;;;;0.32;0.00;;;;;;;;;;5088393;28;20063;-77
2023/06/16 04:30:22;;;;;;;0.20;0.20;;;;;;;;;;5087948;28;20059;-78
2023/06/16 04:32:54;;;;;;;0.10;0.03;;;;;;;;;;5088076;28;20058;-77
2023/06/16 04:35:27;;;;;;;2.13;0.32;;;;;;;;;;5088944;28;20411;-78
2023/06/16 04:37:58;;;;;;;2.97;0.30;;;;;;;;;;5088506;28;20051;-77
2023/06/16 04:40:32;;;;;;;2.10;0.38;;;;;;;;;;5088003;28;20063;-80
2023/06/16 04:43:03;;;;;;;0.38;0.20;;;;;;;;;;5087625;28;20052;-75
2023/06/16 04:45:34;;;;;;;0.47;0.15;;;;;;;;;;5088725;28;20047;-77
2023/06/16 04:48:05;;;;;;;0.10;0.10;;;;;;;;;;5087907;28;20054;-77
2023/06/16 04:50:35;;;;;;;0.25;0.10;;;;;;;;;;5106799;28;20054;-79
2023/06/16 04:53:09;;;;;;;0.10;0.10;;;;;;;;;;5088265;28;20058;-78
2023/06/16 04:55:40;;;;;;;1.80;0.15;;;;;;;;;;5105771;28;20048;-80
2023/06/16 04:58:11;;;;;;;0.15;0.00;;;;;;;;;;5087429;28;20086;-77
2023/06/16 05:00:43;;;;;;;2.50;0.10;;;;;;;;;;5105621;28;20097;-76
2023/06/16 05:03:14;;;;;;;5.15;0.20;;;;;;;;;;5087913;28;20047;-79
2023/06/16 05:05:45;;;;;;;0.82;0.10;;;;;;;;;;5106488;28;20047;-77
2023/06/16 05:08:15;;;;;;;0.10;0.10;;;;;;;;;;5107043;28;20521;-77
2023/06/16 05:10:45;;;;;;;0.55;0.10;;;;;;;;;;5106552;28;20525;-79
2023/06/16 05:13:15;;;;;;;0.00;0.00;;;;;;;;;;5087313;28;20062;-77
2023/06/16 05:15:48;;;;;;;0.80;0.20;;;;;;;;;;5087314;28;20055;-79
2023/06/16 05:18:18;;;;;;;1.23;0.13;;;;;;;;;;5085477;28;20476;-79
2023/06/16 05:20:49;;;;;;;9.10;0.55;;;;;;;;;;5083800;28;20059;-80
2023/06/16 05:23:20;;;;;;;0.95;0.20;;;;;;;;;;5085887;28;20051;-77
2023/06/16 05:25:50;;;;;;;0.00;0.00;;;;;;;;;;5106119;28;20058;-78
2023/06/16 05:28:21;;;;;;;0.20;0.05;;;;;;;;;;5086870;28;20058;-77
2023/06/16 05:30:51;;;;;;;0.03;0.03;;;;;;;;;;5087384;28;20059;-78
2023/06/16 05:33:21;;;;;;;0.03;0.03;;;;;;;;;;5087032;28;20059;-80
2023/06/16 05:35:51;;;;;;;0.43;0.13;;;;;;;;;;5105359;28;20748;-76
2023/06/16 05:38:23;;;;;;;0.57;0.20;;;;;;;;;;5086651;28;20418;-78
2023/06/16 05:40:55;;;;;;;0.20;0.10;;;;;;;;;;5086982;28;20064;-80
2023/06/16 05:43:26;;;;;;;1.17;0.28;;;;;;;;;;5087210;28;20118;-79
2023/06/16 05:45:56;;;;;;;0.20;0.20;;;;;;;;;;5105341;28;20052;-77
2023/06/16 05:48:28;;;;;;;2.63;0.30;;;;;;;;;;5087235;28;20052;-78
2023/06/16 05:51:00;;;;;;;2.33;0.70;;;;;;;;;;5086766;28;20071;-75
2023/06/16 05:53:32;;;;;;;4.10;0.98;;;;;;;;;;5105240;28;20044;-76
2023/06/16 05:56:04;;;;;;;4.25;0.50;;;;;;;;;;5104903;28;20040;-77
2023/06/16 05:58:36;;;;;;;2.90;0.70;;;;;;;;;;5087433;28;20054;-78
2023/06/16 06:01:07;;;;;;;0.73;0.40;;;;;;;;;;5086719;28;20055;-78
2023/06/16 06:03:37;;;;;;;0.93;0.40;;;;;;;;;;5087251;28;20051;-78
2023/06/16 06:06:07;;;;;;;1.98;0.20;;;;;;;;;;5105004;28;20047;-75
2023/06/16 06:08:40;;;;;;;1.17;0.30;;;;;;;;;;5087662;28;20051;-78
2023/06/16 06:11:12;;;;;;;1.27;0.65;;;;;;;;;;5087275;28;20051;-76
2023/06/16 06:13:43;;;;;;;1.15;0.50;;;;;;;;;;5093540;28;20533;-78
2023/06/16 06:16:14;;;;;;;1.90;0.70;;;;;;;;;;5094226;28;20051;-78
2023/06/16 06:18:47;;;;;;;0.60;0.50;;;;;;;;;;5093400;28;20051;-79
2023/06/16 06:21:18;;;;;;;2.55;0.52;;;;;;;;;;5112407;28;20409;-77
2023/06/16 06:23:51;;;;;;;1.27;0.50;;;;;;;;;;5093863;28;20528;-80
2023/06/16 06:26:22;;;;;;;1.60;0.30;;;;;;;;;;5093320;28;20055;-77
2023/06/16 06:28:52;;;;;;;24.50;0.75;;;;;;;;;;5112073;28;20051;-78
2023/06/16 06:31:24;;;;;;;0.25;0.20;;;;;;;;;;5112409;28;20050;-80
2023/06/16 06:33:56;;;;;;;0.93;0.38;;;;;;;;;;5094163;28;20039;-77
2023/06/16 06:36:28;;;;;;;0.80;0.65;;;;;;;;;;5112289;28;20074;-76
2023/06/16 06:39:00;;;;;;;0.30;0.30;;;;;;;;;;5093318;28;20129;-79
2023/06/16 06:41:31;;;;;;;0.95;0.22;;;;;;;;;;5093191;28;20043;-75
2023/06/16 06:44:11;;;;;;;1.20;0.38;;;;;;;;;;5093764;28;20051;-75
2023/06/16 06:46:49;;;;;;;0.40;0.30;;;;;;;;;;5093273;28;20059;-76
2023/06/16 06:49:21;;;;;;;0.13;0.13;;;;;;;;;;5093761;28;20052;-76
2023/06/16 06:51:51;;;;;;;0.30;0.30;;;;;;;;;;5111764;28;20406;-76
2023/06/16 06:54:23;;;;;;;0.90;0.43;;;;;;;;;;5076638;28;20055;-75
2023/06/16 06:56:54;;;;;;;0.75;0.30;;;;;;;;;;5111340;28;20429;-76
2023/06/16 06:59:24;;;;;;;0.73;0.40;;;;;;;;;;5111659;28;20043;-75
2023/06/16 07:01:54;;;;;;;0.70;0.28;;;;;;;;;;5111974;28;20039;-76
2023/06/16 07:04:25;;;;;;;0.75;0.22;;;;;;;;;;5093033;28;20047;-76
2023/06/16 07:06:56;;;;;;;1.15;0.40;;;;;;;;;;5112093;28;20046;-76
2023/06/16 07:09:26;;;;;;;0.28;0.17;;;;;;;;;;5093256;28;20062;-77
2023/06/16 07:11:59;;;;;;;4.20;0.30;;;;;;;;;;5112445;28;20047;-79
2023/06/16 07:14:29;;;;;;;0.47;0.30;;;;;;;;;;5093968;28;21151;-78
2023/06/16 07:17:02;;;;;;;0.75;0.40;;;;;;;;;;5111595;28;20040;-79
2023/06/16 07:19:32;;;;;;;0.22;0.22;;;;;;;;;;5111824;28;20058;-78
2023/06/16 07:22:02;;;;;;;0.30;0.20;;;;;;;;;;5093378;28;20055;-79
2023/06/16 07:24:33;;;;;;;1.55;0.20;;;;;;;;;;5108310;28;20042;-79
2023/06/16 07:27:04;;;;;;;0.00;0.00;;;;;;;;;;5108645;28;20054;-79
2023/06/16 07:29:36;;;;;;;0.47;0.10;;;;;;;;;;5090332;28;20534;-80
2023/06/16 07:32:06;;;;;;;0.00;0.00;;;;;;;;;;5108760;28;20043;-78
2023/06/16 07:34:39;;;;;;;0.08;0.00;;;;;;;;;;5089636;28;20521;-79
2023/06/16 07:37:10;;;;;;;3.95;0.10;;;;;;;;;;5108672;28;20419;-77
2023/06/16 07:39:40;;;;;;;0.10;0.10;;;;;;;;;;5107383;28;20050;-78
2023/06/16 07:42:11;;;;;;;4.15;0.20;;;;;;;;;;5108022;28;20047;-77
2023/06/16 07:44:41;;;;;;;;;;;;;;;;;;5108263;28;20050;-77
2023/06/16 07:47:11;;;;;;;0.40;0.10;;;;;;;;;;5089012;28;19923;-76
2023/06/16 07:49:42;;;;;;;1.35;0.10;;;;;;;;;;5107963;28;20417;-79
2023/06/16 07:52:13;;;;;;;0.65;0.10;;;;;;;;;;5090476;28;20046;-77
2023/06/16 07:54:50;;;;;;;0.10;0.10;;;;;;;;;;5107978;28;20051;-75
2023/06/16 07:57:20;;;;;;;;;;;;;;;;;;5108540;28;20051;-78
2023/06/16 07:59:51;;;;;;;0.10;0.10;;;;;;;;;;5107882;28;19930;-76
2023/06/16 08:02:21;;;;;;;0.20;0.10;;;;;;;;;;5108127;28;20044;-75
2023/06/16 08:04:51;;;;;;;3.15;0.30;;;;;;;;;;5107066;28;20432;-78
2023/06/16 08:07:21;;;;;;;0.00;0.00;;;;;;;;;;5088645;28;20059;-78
2023/06/16 08:09:52;;;;;;;0.10;0.10;;;;;;;;;;5107734;28;20050;-77
2023/06/16 08:12:23;;;;;;;0.00;0.00;;;;;;;;;;5107941;28;20047;-81
2023/06/16 08:14:53;;;;;;;0.50;0.10;;;;;;;;;;5107740;28;20870;-75
2023/06/16 08:17:23;;;;;;;;;;;;;;;;;;5107683;28;20044;-77
2023/06/16 08:19:53;;;;;;;0.17;0.17;;;;;;;;;;5107478;28;19924;-77
2023/06/16 08:22:24;;;;;;;0.20;0.20;;;;;;;;;;5108653;28;20047;-77
2023/06/16 08:24:55;;;;;;;0.90;0.20;;;;;;;;;;5107564;28;20044;-76
2023/06/16 08:27:25;;;;;;;0.40;0.10;;;;;;;;;;5107179;28;20047;-78
2023/06/16 08:29:55;;;;;;;0.25;0.10;;;;;;;;;;5106860;28;20051;-76
2023/06/16 08:32:26;;;;;;;0.17;0.10;;;;;;;;;;5107097;28;20050;-78
2023/06/16 08:34:58;;;;;;;0.45;0.10;;;;;;;;;;5107502;28;20052;-77
2023/06/16 08:37:28;;;;;;;0.10;0.10;;;;;;;;;;5088469;28;20428;-76
2023/06/16 08:40:00;;;;;;;1.58;0.20;;;;;;;;;;5107903;28;20056;-76
2023/06/16 08:42:33;;;;;;;0.73;0.20;;;;;;;;;;5106542;28;20054;-77
2023/06/16 08:45:04;;;;;;;0.85;0.10;;;;;;;;;;5106645;28;20039;-75
2023/06/16 08:47:38;;;;;;;2.22;0.30;;;;;;;;;;5106840;28;20051;-77
2023/06/16 08:50:09;;;;;;;0.30;0.10;;;;;;;;;;5106733;28;20055;-79
2023/06/16 08:52:42;;;;;;;1.55;0.30;;;;;;;;;;5106274;28;20043;-78
2023/06/16 08:55:15;;;;;;;1.63;0.30;;;;;;;;;;5106228;28;20036;-76
2023/06/16 08:57:50;;;;;;;1.92;0.57;;;;;;;;;;5103621;28;20510;-77
2023/06/16 09:00:21;;;;;;;1.35;0.28;;;;;;;;;;5105301;28;20057;-80
2023/06/16 09:02:56;;;;;;;0.30;0.13;;;;;;;;;;5105661;28;20044;-78
2023/06/16 09:05:30;;;;;;;0.43;0.17;;;;;;;;;;5104633;28;20510;-79
2023/06/16 09:08:05;;;;;;;1.17;0.30;;;;;;;;;;5106424;28;20767;-78
2023/06/16 09:10:35;;;;;;;1.80;0.22;;;;;;;;;;5103803;28;20505;-79
2023/06/16 09:13:05;;;;;;;2.85;0.45;;;;;;;;;;5106417;28;20051;-78
2023/06/16 09:15:36;;;;;;;0.10;0.10;;;;;;;;;;5106798;28;20055;-76
2023/06/16 09:18:08;;;;;;;0.70;0.20;;;;;;;;;;5106027;28;20043;-78
2023/06/16 09:20:44;;;;;;;1.08;0.20;;;;;;;;;;5106058;28;20553;-77
2023/06/16 09:23:15;;;;;;;0.10;0.10;;;;;;;;;;5105866;28;20040;-77
2023/06/16 09:25:50;;;;;;;;;;;;;;;;;;5105639;28;20051;-77
2023/06/16 09:28:34;;;;;;;0.65;0.20;;;;;;;;;;5106112;28;19920;-78
2023/06/16 09:31:13;;;;;;;3.72;0.10;;;;;;;;;;5105803;28;20433;-78
2023/06/16 09:33:44;;;;;;;3.22;0.40;;;;;;;;;;5105797;28;20538;-77
2023/06/16 09:49:29;;;;;;;3.53;0.60;;;;;;;;;;5184607;27;20438;-79
2023/06/16 09:52:00;;;;;;;3.88;0.60;;;;;;;;;;5185910;27;20411;-76
2023/06/16 09:54:32;;;;;;;0.60;0.22;;;;;;;;;;5185671;27;20050;-79
2023/06/16 09:57:04;;;;;;;0.85;0.30;;;;;;;;;;5186201;27;20037;-78
2023/06/16 09:59:35;;;;;;;1.67;0.43;;;;;;;;;;5166151;27;20050;-78
2023/06/16 10:02:08;;;;;;;2.35;1.30;;;;;;;;;;5185018;27;20046;-78
2023/06/16 10:04:38;;;;;;;0.82;0.28;;;;;;;;;;5186008;27;20049;-80
2023/06/16 10:07:09;;;;;;;4.25;0.60;;;;;;;;;;5185432;27;20430;-78
2023/06/16 10:09:44;;;;;;;0.30;0.30;;;;;;;;;;5185951;27;20046;-79
2023/06/16 10:12:34;;;;;;;2.50;0.40;;;;;;;;;;5185406;27;20613;-78
2023/06/16 10:15:06;;;;;;;0.30;0.22;;;;;;;;;;5185610;27;20053;-78
2023/06/16 10:17:39;;;;;;;0.70;0.52;;;;;;;;;;5166448;27;20060;-76
2023/06/16 10:20:13;;;;;;;3.53;0.40;;;;;;;;;;5166834;27;20054;-77
2023/06/16 10:22:45;;;;;;;1.20;0.20;;;;;;;;;;5185045;27;20042;-76
2023/06/16 10:25:16;;;;;;;1.25;0.40;;;;;;;;;;5185242;27;20061;-78
2023/06/16 10:27:46;;;;;;;0.73;0.28;;;;;;;;;;5185590;27;20050;-77
2023/06/16 10:30:19;;;;;;;0.30;0.20;;;;;;;;;;5185257;27;20510;-80
2023/06/16 10:32:52;;;;;;;1.10;0.40;;;;;;;;;;5184488;27;20049;-77
2023/06/16 10:35:23;;;;;;;0.22;0.20;;;;;;;;;;5184754;27;20034;-77
2023/06/16 10:37:54;;;;;;;0.95;0.30;;;;;;;;;;5184587;27;20057;-77
2023/06/16 10:40:28;;;;;;;1.02;0.20;;;;;;;;;;5185278;27;20045;-77
2023/06/16 10:42:59;;;;;;;1.45;0.82;;;;;;;;;;5184794;27;20046;-78
2023/06/16 10:45:35;;;;;;;1.80;0.52;;;;;;;;;;5183640;27;20042;-78
2023/06/16 10:48:11;;;;;;;;;;;;;;;;;;5165576;27;20046;-77
2023/06/16 10:50:45;;;;;;;0.25;0.25;;;;;;;;;;5148731;27;19930;-77
2023/06/16 10:53:17;;;;;;;0.43;0.25;;;;;;;;;;5149303;27;20057;-77
2023/06/16 10:55:48;;;;;;;0.95;0.22;;;;;;;;;;5148639;27;20511;-79
2023/06/16 10:58:26;;;;;;;1.77;0.30;;;;;;;;;;5149389;27;20500;-76
2023/06/16 11:01:03;;;;;;;0.43;0.22;;;;;;;;;;5149363;27;20038;-77
2023/06/16 11:03:46;;;;;;;1.38;0.40;;;;;;;;;;5149376;27;20401;-76
2023/06/16 11:06:17;;;;;;;0.60;0.35;;;;;;;;;;5149170;27;20051;-78
2023/06/16 11:08:52;;;;;;;1.27;0.43;;;;;;;;;;5148894;27;20409;-77
2023/06/16 11:11:33;;;;;;;1.23;0.38;;;;;;;;;;5149114;27;20069;-78
2023/06/16 11:14:04;;;;;;;0.85;0.40;;;;;;;;;;5147821;27;20370;-75
2023/06/16 11:16:35;;;;;;;3.35;0.65;;;;;;;;;;5148061;27;20047;-79
2023/06/16 11:19:05;;;;;;;0.85;0.30;;;;;;;;;;5148819;27;20054;-77
2023/06/16 11:21:36;;;;;;;;;;;;;;;;;;5148976;27;20053;-76
2023/06/16 11:24:13;;;;;;;1.15;0.47;;;;;;;;;;5148790;27;20376;-78
2023/06/16 11:26:44;;;;;;;1.15;0.20;;;;;;;;;;5148301;27;20047;-78
2023/06/16 11:29:15;;;;;;;0.10;0.10;;;;;;;;;;5148735;27;20054;-76
2023/06/16 11:31:46;;;;;;;0.93;0.40;;;;;;;;;;5148575;27;20404;-76
2023/06/16 11:34:18;;;;;;;0.35;0.30;;;;;;;;;;5147919;27;20038;-78
2023/06/16 11:36:48;;;;;;;0.52;0.30;;;;;;;;;;5148450;27;20633;-77
2023/06/16 11:39:19;;;;;;;0.47;0.38;;;;;;;;;;5148424;27;20057;-78
2023/06/16 11:41:54;;;;;;;;;;;;;;;;;;5148072;27;20496;-77
2023/06/16 11:44:32;;;;;;;2.38;0.35;;;;;;;;;;5147870;27;19919;-78
2023/06/16 11:47:03;;;;;;;0.70;0.50;;;;;;;;;;5147903;27;20060;-75
2023/06/16 11:49:36;;;;;;;0.63;0.30;;;;;;;;;;5147840;27;20042;-75
2023/06/16 11:52:08;;;;;;;0.25;0.20;;;;;;;;;;5148358;27;20496;-75
2023/06/16 11:54:39;;;;;;;0.30;0.30;;;;;;;;;;5148111;27;20050;-74
2023/06/16 11:57:10;;;;;;;0.65;0.50;;;;;;;;;;5147941;27;20050;-76
2023/06/16 11:59:42;;;;;;;0.55;0.40;;;;;;;;;;5129154;27;20051;-76
2023/06/16 12:02:12;;;;;;;1.48;0.35;;;;;;;;;;5147077;27;20038;-79
2023/06/16 12:04:45;;;;;;;1.15;0.50;;;;;;;;;;5147472;27;20054;-76
2023/06/16 12:07:16;;;;;;;0.73;0.50;;;;;;;;;;5147250;27;20060;-77
2023/06/16 12:09:45;;;;;;;0.40;0.25;;;;;;;;;;5147620;27;20043;-75
2023/06/16 12:12:16;;;;;;;0.40;0.40;;;;;;;;;;5146308;27;20051;-78
2023/06/16 12:14:48;;;;;;;1.95;0.35;;;;;;;;;;5145511;27;20078;-77
2023/06/16 12:17:18;;;;;;;1.33;0.43;;;;;;;;;;5145561;27;20138;-78
2023/06/16 12:19:49;;;;;;;1.42;0.50;;;;;;;;;;5144319;27;20571;-75
2023/06/16 12:22:21;;;;;;;1.02;0.40;;;;;;;;;;5144549;27;20516;-75
2023/06/16 12:24:53;;;;;;;4.25;0.63;;;;;;;;;;5145671;27;20043;-80
2023/06/16 12:27:24;;;;;;;0.52;0.50;;;;;;;;;;5110798;27;20042;-76
2023/06/16 12:29:58;;;;;;;2.47;0.60;;;;;;;;;;5147452;27;20042;-76
2023/06/16 12:32:31;;;;;;;2.70;2.05;;;;;;;;;;5127902;27;20046;-74
2023/06/16 12:35:02;;;;;;;0.80;0.77;;;;;;;;;;5147199;27;20516;-76
2023/06/16 12:37:33;;;;;;;0.82;0.50;;;;;;;;;;5147375;27;20050;-77
2023/06/16 12:40:06;;;;;;;0.68;0.32;;;;;;;;;;5147002;27;20050;-76
2023/06/16 12:42:44;;;;;;;1.85;0.88;;;;;;;;;;5147129;27;20050;-76
2023/06/16 12:45:17;;;;;;;0.85;0.57;;;;;;;;;;5147342;27;20043;-76
2023/06/16 12:47:48;;;;;;;1.38;0.60;;;;;;;;;;5146739;27;20057;-77
2023/06/16 12:50:18;;;;;;;0.43;0.43;;;;;;;;;;5147665;27;20047;-78
2023/06/16 12:52:49;;;;;;;3.58;0.90;;;;;;;;;;5147371;27;20050;-77
2023/06/16 12:55:20;;;;;;;1.40;0.63;;;;;;;;;;5146917;27;20053;-74
2023/06/16 12:57:51;;;;;;;1.30;0.63;;;;;;;;;;5147354;27;20050;-80
2023/06/16 13:00:21;;;;;;;3.05;0.50;;;;;;;;;;5146886;27;20046;-75
2023/06/16 13:02:53;;;;;;;4.07;0.77;;;;;;;;;;5147487;27;20493;-74
2023/06/16 13:05:24;;;;;;;2.55;0.60;;;;;;;;;;5146530;27;20505;-77
2023/06/16 13:07:56;;;;;;;1.58;0.73;;;;;;;;;;5146637;27;20054;-75
2023/06/16 13:10:26;;;;;;;4.93;0.70;;;;;;;;;;5146535;27;20045;-76
2023/06/16 13:12:58;;;;;;;6.13;1.60;;;;;;;;;;5145963;27;20832;-75
2023/06/16 13:15:30;;;;;;;1.52;0.70;;;;;;;;;;5146794;27;20043;-76
2023/06/16 13:18:01;;;;;;;3.08;0.90;;;;;;;;;;5146955;27;20046;-80
2023/06/16 13:20:32;;;;;;;5.90;0.90;;;;;;;;;;5146876;27;20046;-77
2023/06/16 13:23:01;;;;;;;1.13;0.52;;;;;;;;;;5146262;27;20108;-75
2023/06/16 13:25:33;;;;;;;1.83;0.73;;;;;;;;;;5146348;27;20065;-78
2023/06/16 13:28:05;;;;;;;1.05;0.52;;;;;;;;;;5145277;27;20047;-75
2023/06/16 13:30:36;;;;;;;1.83;0.77;;;;;;;;;;5146633;27;20046;-75
2023/06/16 13:33:07;;;;;;;4.05;1.60;;;;;;;;;;5146841;27;20039;-77
2023/06/16 13:35:38;;;;;;;2.35;1.42;;;;;;;;;;5146411;27;20047;-76
2023/06/16 13:38:08;;;;;;;2.40;0.95;;;;;;;;;;5146151;27;20058;-75
2023/06/16 13:40:39;;;;;;;1.48;0.73;;;;;;;;;;5146650;27;20515;-75
2023/06/16 13:43:10;;;;;;;3.67;0.93;;;;;;;;;;5146421;27;20046;-75
2023/06/16 13:45:41;;;;;;;3.03;0.80;;;;;;;;;;5146724;27;20038;-74
2023/06/16 13:48:15;;;;;;;3.17;1.10;;;;;;;;;;5146244;27;20058;-76
2023/06/16 13:50:45;;;;;;;2.85;0.88;;;;;;;;;;5146622;27;20039;-80
2023/06/16 13:53:16;;;;;;;2.42;0.50;;;;;;;;;;5146572;27;20039;-78
2023/06/16 13:55:46;;;;;;;2.65;0.93;;;;;;;;;;5146228;27;20049;-77
2023/06/16 13:58:18;;;;;;;5.97;0.70;;;;;;;;;;5146063;27;20039;-75
2023/06/16 14:00:48;;;;;;;2.55;0.57;;;;;;;;;;5146339;27;20058;-78
2023/06/16 14:03:18;;;;;;;1.17;0.80;;;;;;;;;;5146913;27;20051;-78
2023/06/16 14:05:49;;;;;;;3.10;0.82;;;;;;;;;;5146036;27;20043;-77
2023/06/16 14:08:20;;;;;;;1.40;0.90;;;;;;;;;;5146226;27;20047;-79
2023/06/16 14:10:51;;;;;;;5.22;1.50;;;;;;;;;;5146009;27;20039;-77
2023/06/16 14:13:23;;;;;;;2.33;0.77;;;;;;;;;;5145829;27;20043;-77
2023/06/16 14:15:54;;;;;;;4.53;1.17;;;;;;;;;;5146262;27;20523;-77
2023/06/16 14:18:24;;;;;;;1.10;0.90;;;;;;;;;;5146026;27;20416;-76
2023/06/16 14:20:56;;;;;;;5.05;1.20;;;;;;;;;;5146060;27;20404;-76
2023/06/16 14:23:26;;;;;;;4.53;1.10;;;;;;;;;;5146117;27;20045;-76
2023/06/16 14:25:56;;;;;;;2.22;0.70;;;;;;;;;;5149855;27;20046;-76
2023/06/16 14:28:27;;;;;;;0.70;0.60;;;;;;;;;;5150156;27;20074;-77
2023/06/16 14:30:58;;;;;;;2.75;1.05;;;;;;;;;;5149716;27;20066;-76
2023/06/16 14:33:28;;;;;;;6.65;1.73;;;;;;;;;;5149252;27;20055;-78
2023/06/16 14:35:59;;;;;;;4.55;1.83;;;;;;;;;;5149501;27;20047;-76
2023/06/16 14:38:29;;;;;;;4.22;1.90;;;;;;;;;;5149602;27;20043;-76
2023/06/16 14:41:00;;;;;;;3.80;1.48;;;;;;;;;;5131306;27;20493;-75
2023/06/16 14:43:30;;;;;;;3.08;1.40;;;;;;;;;;5150153;27;20050;-75
2023/06/16 14:46:00;;;;;;;2.22;0.90;;;;;;;;;;5149964;27;20039;-75
2023/06/16 14:48:30;;;;;;;2.13;1.05;;;;;;;;;;5149488;27;20511;-76
2023/06/16 14:51:00;;;;;;;6.65;1.15;;;;;;;;;;5149517;27;20050;-76
2023/06/16 14:53:31;;;;;;;5.57;0.93;;;;;;;;;;5149890;27;20054;-79
2023/06/16 14:56:01;;;;;;;4.20;1.20;;;;;;;;;;5149377;27;20035;-76
2023/06/16 14:58:31;;;;;;;16.95;4.38;;;;;;;;;;5131049;27;20046;-78
2023/06/16 15:01:01;;;;;;;7.50;1.13;;;;;;;;;;5149935;27;20073;-76
2023/06/16 15:03:34;;;;;;;5.40;1.08;;;;;;;;;;5149604;27;20053;-78
2023/06/16 15:06:08;;;;;;;2.45;1.05;;;;;;;;;;5148043;27;20128;-77
2023/06/16 15:08:41;;;;;;;3.42;1.40;;;;;;;;;;5149157;27;20069;-78
2023/06/16 15:11:12;;;;;;;3.38;1.30;;;;;;;;;;5149502;27;20459;-77
2023/06/16 15:13:42;;;;;;;1.40;0.88;;;;;;;;;;5149301;27;20072;-78
2023/06/16 15:16:12;;;;;;;3.05;1.00;;;;;;;;;;5149190;27;20070;-77
2023/06/16 15:18:44;;;;;;;2.90;1.08;;;;;;;;;;5149491;27;20046;-78
2023/06/16 15:21:15;;;;;;;3.35;1.25;;;;;;;;;;5148913;27;20050;-77
2023/06/16 15:23:45;;;;;;;1.52;0.93;;;;;;;;;;5129992;27;20055;-76
2023/06/16 15:26:17;;;;;;;2.85;1.08;;;;;;;;;;5148754;27;20050;-76
2023/06/16 15:28:49;;;;;;;3.20;1.50;;;;;;;;;;5149415;27;20054;-77